MMPR 090448Z 02003KT 12SM SKC 20/17 A2995 RMK MSGTX MMMX= 090448

MMPR 090345Z 02003KT 12SM SKC 21/18 A2994 RMK MSGTX MMMX= 090345

MMPR 090240Z 00000KT 13SM SKC 22/20 A2993 RMK SLP134 52019 904= 090240

MMPR 090143Z 00000KT 15SM SKC 24/20 A2991= 090143

MMPR 090040Z 18005KT 15SM FEW250 26/21 A2989 RMK 8/005= 090041

MMPR 082340Z 19005KT 15SM FEW250 27/22 A2987 RMK SLP115 52002 902 8/005= 082340

MMPR 082241Z 20007KT 15SM FEW250 27/20 A2986 RMK 8/005= 082243

MMPR 082141Z 21007KT 15SM SKC 28/17 A2986 RMK CS= 082142

MMPR 082041Z 22005KT 15SM SKC 28/18 A2987 RMK SLP113 57026 956 CS= 082042

MMPR 081942Z 20005KT 15SM SKC 28/15 A2989 RMK CS= 081943

MMPR 081843Z 19006KT 15SM FEW290 27/14 A2993 RMK 8/001= 081844

MMPR 081746Z 21002KT 15SM FEW290 27/14 A2994 RMK SLP139 57002 901 8/001= 081747

MMPR 081646Z 00000KT 15SM SCT290 25/13 A2996 RMK 8/001= 081646

COR MMPR 081542Z 02005KT 15SM BKN290 22/14 A2996 RMK 8/001= 081550

MMPR 081542Z 02005KT 15SM BKN290 29/14 A2996 RMK 8/001= 081543

MMPR 081447Z 03005KT 15SM BKN290 20/14 A2995 RMK SLP141 5//// 904 8/001= 081447

MMPR 081343Z 03005KT 15SM BKN290 17/14 A2994 RMK 8/001= 081344

MMPR 081244Z 05003KT 15SM FEW250 17/14 A2992 RMK 8/001 RTS= 081245

MMPR 081144Z 03006KT 12SM SKC 17/14 A2991 NOSIG= 081144

MMPR 080459Z RTD 00000KT 15SM SKC 21/18 A2994 RMK MSG TX MMMX= 080459

MMPR 080354Z 00000KT 15SM SKC 22/19 A2994 RMK MSG TX MMMX= 080354

MMPR 080244Z 00000KT 10SM SKC 23/21 A2992 RMK SLP130 52017 963 HZY= 080246

MMPR 080142Z 00000KT 12SM SKC 25/21 A2990= 080142

MMPR 080040Z 00000KT 15SM SKC 26/22 A2989= 080040

MMPR 072341Z 19015KT 15SM FEW250 27/22 A2987 RMK SLP113 57006 967 8/001= 072342

MMPR 072240Z 19008KT 15SM SKC 28/22 A2987 RMK CS= 072241

MMPR 072140Z 19008KT 15SM SKC 28/23 A2988 RMK CS= 072141

MMPR 072043Z 21010KT 15SM SKC 28/20 A2989 RMK SLP119 57019 964 CS= 072043

MMPR 071942Z 19007KT 15SM BKN250 28/17 A2990 RMK 8/001= 071942

MMPR 071841Z 23006KT 15SM FEW230 28/16 A2993 RMK 8/001= 071842

MMPR 071742Z 00000KT 15SM FEW230 28/16 A2994 RMK SLP138 52001 962 8/001= 071743

MMPR 071640Z 00000KT 15SM SKC 26/15 A2996 RMK CS= 071641

MMPR 071541Z 02009KT 15SM SKC 24/16 A2995 RMK CS= 071542

MMPR 071442Z 01005KT 15SM SKC 21/16 A2994 RMK SLP137 5//// 966 CS= 071443

MMPR 071345Z 03003KT 15SM SKC 19/16 A2992 RMK CS= 071346

MMPR 071244Z 04006KT 15SM SKC 18/16 A2992 RMK CS RTS= 071245

MMPR 070350Z 00000KT 15SM SKC 23/20 A2998= 070358

MMPR 070243Z 00000KT 13SM SKC 24/21 A2996 RMK SLP243 52013 909= 070243

MMPR 070143Z 00000KT 13SM SKC 25/23 A2994= 070143

MMPR 070040Z 00000KT 13SM SCT250 26/23 A2993 RMK 8/001= 070041

MMPR 062347Z 21005KT 15SM SCT250 27/23 A2992 RMK SLP130 57003 910 8/001= 062347

MMPR 062249Z 22006KT 15SM FEW250 27/22 A2991 RMK 8/001= 062250

MMPR 062146Z 20007KT 15SM SCT250 27/22 A2992 RMK 8/004 CU-NE= 062146

MMPR 062044Z 21008KT 15SM FEW250 27/20 A2993 RMK SLP133 57017 917 8/004 CU-NE/E= 062045

MMPR 061941Z 22007KT 15SM BKN250 28/19 A2994 RMK 8/004= 061942

MMPR 061843Z 20006KT 15SM BKN250 28/18 A2996 RMK 8/004= 061844

MMPR 061747Z 00000KT 15SM OVC250 29/18 A2998 RMK SLP150 57003 909 8/007= 061748

MMPR 061643Z 05003KT 15SM OVC250 26/16 A3000 RMK 8/007= 061644

MMPR 061544Z 03005KT 15SM OVC250 24/16 A3000 RMK 8/007= 061545

MMPR 061443Z 00000KT 15SM SCT090 BKN130 21/16 A2999 RMK SLP153 5//// 912 8/070= 061444